sensor_id;sensor_type;location;lat;lon;timestamp;P1;durP1;ratioP1;P2;durP2;ratioP2
60006;SDS011;45863;50.336;3.536;2022-07-30T00:02:20;7.80;;;3.63;;
60006;SDS011;45863;50.336;3.536;2022-07-30T00:04:45;11.68;;;3.83;;
60006;SDS011;45863;50.336;3.536;2022-07-30T00:07:11;9.83;;;4.00;;
60006;SDS011;45863;50.336;3.536;2022-07-30T00:09:36;11.55;;;3.80;;
60006;SDS011;45863;50.336;3.536;2022-07-30T00:12:01;11.40;;;4.35;;
60006;SDS011;45863;50.336;3.536;2022-07-30T00:14:26;14.02;;;4.53;;
60006;SDS011;45863;50.336;3.536;2022-07-30T00:16:52;9.98;;;4.03;;
60006;SDS011;45863;50.336;3.536;2022-07-30T00:19:17;10.00;;;3.95;;
60006;SDS011;45863;50.336;3.536;2022-07-30T00:21:43;10.75;;;3.55;;
60006;SDS011;45863;50.336;3.536;2022-07-30T00:24:08;10.23;;;3.45;;
60006;SDS011;45863;50.336;3.536;2022-07-30T00:26:33;9.25;;;3.92;;
60006;SDS011;45863;50.336;3.536;2022-07-30T00:28:58;11.37;;;4.00;;
60006;SDS011;45863;50.336;3.536;2022-07-30T00:31:24;11.80;;;3.92;;
60006;SDS011;45863;50.336;3.536;2022-07-30T00:33:49;9.13;;;4.15;;
60006;SDS011;45863;50.336;3.536;2022-07-30T00:36:14;10.02;;;4.30;;
60006;SDS011;45863;50.336;3.536;2022-07-30T00:38:39;9.00;;;4.80;;
60006;SDS011;45863;50.336;3.536;2022-07-30T00:41:04;9.87;;;4.23;;
60006;SDS011;45863;50.336;3.536;2022-07-30T00:43:30;13.03;;;4.47;;
60006;SDS011;45863;50.336;3.536;2022-07-30T00:45:55;8.10;;;4.30;;
60006;SDS011;45863;50.336;3.536;2022-07-30T00:48:20;9.37;;;4.17;;
60006;SDS011;45863;50.336;3.536;2022-07-30T00:50:45;8.20;;;4.10;;
60006;SDS011;45863;50.336;3.536;2022-07-30T00:53:11;9.73;;;4.00;;
60006;SDS011;45863;50.336;3.536;2022-07-30T00:55:36;10.55;;;4.07;;
60006;SDS011;45863;50.336;3.536;2022-07-30T00:58:01;11.20;;;3.70;;
60006;SDS011;45863;50.336;3.536;2022-07-30T01:00:26;7.93;;;3.80;;
60006;SDS011;45863;50.336;3.536;2022-07-30T01:02:52;10.75;;;4.28;;
60006;SDS011;45863;50.336;3.536;2022-07-30T01:05:17;11.43;;;4.28;;
60006;SDS011;45863;50.336;3.536;2022-07-30T01:07:43;10.30;;;4.63;;
60006;SDS011;45863;50.336;3.536;2022-07-30T01:10:09;9.90;;;4.05;;
60006;SDS011;45863;50.336;3.536;2022-07-30T01:12:34;10.35;;;5.13;;
60006;SDS011;45863;50.336;3.536;2022-07-30T01:15:00;11.98;;;5.53;;
60006;SDS011;45863;50.336;3.536;2022-07-30T01:17:26;13.98;;;5.82;;
60006;SDS011;45863;50.336;3.536;2022-07-30T01:19:53;14.32;;;5.53;;
60006;SDS011;45863;50.336;3.536;2022-07-30T01:27:20;11.07;;;4.88;;
60006;SDS011;45863;50.336;3.536;2022-07-30T01:29:46;9.65;;;4.38;;
60006;SDS011;45863;50.336;3.536;2022-07-30T01:32:12;7.63;;;3.45;;
60006;SDS011;45863;50.336;3.536;2022-07-30T01:34:39;9.18;;;3.88;;
60006;SDS011;45863;50.336;3.536;2022-07-30T01:37:05;9.48;;;4.45;;
60006;SDS011;45863;50.336;3.536;2022-07-30T01:39:32;12.60;;;5.40;;
60006;SDS011;45863;50.336;3.536;2022-07-30T01:41:58;10.25;;;5.45;;
60006;SDS011;45863;50.336;3.536;2022-07-30T01:44:25;7.88;;;4.65;;
60006;SDS011;45863;50.336;3.536;2022-07-30T01:46:51;7.20;;;4.10;;
60006;SDS011;45863;50.336;3.536;2022-07-30T01:49:17;11.93;;;4.85;;
60006;SDS011;45863;50.336;3.536;2022-07-30T01:51:43;13.57;;;5.05;;
60006;SDS011;45863;50.336;3.536;2022-07-30T01:54:09;12.30;;;5.55;;
60006;SDS011;45863;50.336;3.536;2022-07-30T01:56:36;9.25;;;4.65;;
60006;SDS011;45863;50.336;3.536;2022-07-30T01:59:03;11.15;;;5.72;;
60006;SDS011;45863;50.336;3.536;2022-07-30T02:01:28;11.68;;;5.47;;
60006;SDS011;45863;50.336;3.536;2022-07-30T02:03:54;17.83;;;5.20;;
60006;SDS011;45863;50.336;3.536;2022-07-30T02:06:20;12.93;;;5.50;;
60006;SDS011;45863;50.336;3.536;2022-07-30T02:08:55;19.13;;;5.93;;
60006;SDS011;45863;50.336;3.536;2022-07-30T02:11:22;17.50;;;6.57;;
60006;SDS011;45863;50.336;3.536;2022-07-30T02:14:28;12.35;;;6.13;;
60006;SDS011;45863;50.336;3.536;2022-07-30T02:16:54;15.63;;;6.50;;
60006;SDS011;45863;50.336;3.536;2022-07-30T02:19:22;10.02;;;5.45;;
60006;SDS011;45863;50.336;3.536;2022-07-30T02:21:53;11.52;;;5.43;;
60006;SDS011;45863;50.336;3.536;2022-07-30T02:24:21;11.23;;;5.18;;
60006;SDS011;45863;50.336;3.536;2022-07-30T02:26:48;10.13;;;4.85;;
60006;SDS011;45863;50.336;3.536;2022-07-30T02:29:15;13.93;;;5.78;;
60006;SDS011;45863;50.336;3.536;2022-07-30T02:31:42;9.90;;;5.22;;
60006;SDS011;45863;50.336;3.536;2022-07-30T02:34:08;10.48;;;5.40;;
60006;SDS011;45863;50.336;3.536;2022-07-30T02:36:34;12.43;;;5.65;;
60006;SDS011;45863;50.336;3.536;2022-07-30T02:38:59;11.82;;;5.95;;
60006;SDS011;45863;50.336;3.536;2022-07-30T02:41:27;11.98;;;5.68;;
60006;SDS011;45863;50.336;3.536;2022-07-30T02:43:53;12.30;;;6.28;;
60006;SDS011;45863;50.336;3.536;2022-07-30T02:46:19;14.10;;;5.93;;
60006;SDS011;45863;50.336;3.536;2022-07-30T02:48:45;13.82;;;6.20;;
60006;SDS011;45863;50.336;3.536;2022-07-30T02:51:11;10.00;;;5.43;;
60006;SDS011;45863;50.336;3.536;2022-07-30T02:53:39;12.80;;;5.57;;
60006;SDS011;45863;50.336;3.536;2022-07-30T02:56:07;12.50;;;5.72;;
60006;SDS011;45863;50.336;3.536;2022-07-30T02:58:33;11.38;;;6.10;;
60006;SDS011;45863;50.336;3.536;2022-07-30T03:00:59;9.70;;;5.60;;
60006;SDS011;45863;50.336;3.536;2022-07-30T03:03:25;12.52;;;5.85;;
60006;SDS011;45863;50.336;3.536;2022-07-30T03:05:53;9.13;;;4.88;;
60006;SDS011;45863;50.336;3.536;2022-07-30T03:08:18;11.32;;;5.43;;
60006;SDS011;45863;50.336;3.536;2022-07-30T03:10:44;8.70;;;5.45;;
60006;SDS011;45863;50.336;3.536;2022-07-30T03:13:11;12.73;;;6.40;;
60006;SDS011;45863;50.336;3.536;2022-07-30T03:15:36;13.25;;;6.68;;
60006;SDS011;45863;50.336;3.536;2022-07-30T03:18:06;14.35;;;6.35;;
60006;SDS011;45863;50.336;3.536;2022-07-30T03:20:32;12.55;;;5.80;;
60006;SDS011;45863;50.336;3.536;2022-07-30T03:22:58;12.95;;;6.05;;
60006;SDS011;45863;50.336;3.536;2022-07-30T03:25:26;13.95;;;5.68;;
60006;SDS011;45863;50.336;3.536;2022-07-30T03:27:52;12.35;;;5.97;;
60006;SDS011;45863;50.336;3.536;2022-07-30T03:30:18;9.38;;;6.15;;
60006;SDS011;45863;50.336;3.536;2022-07-30T03:32:43;11.82;;;6.78;;
60006;SDS011;45863;50.336;3.536;2022-07-30T03:35:09;10.80;;;6.45;;
60006;SDS011;45863;50.336;3.536;2022-07-30T03:37:36;13.70;;;6.32;;
60006;SDS011;45863;50.336;3.536;2022-07-30T03:40:02;12.98;;;6.85;;
60006;SDS011;45863;50.336;3.536;2022-07-30T03:42:27;10.13;;;6.10;;
60006;SDS011;45863;50.336;3.536;2022-07-30T03:44:53;9.38;;;5.70;;
60006;SDS011;45863;50.336;3.536;2022-07-30T03:47:19;9.30;;;5.40;;
60006;SDS011;45863;50.336;3.536;2022-07-30T03:49:44;12.43;;;6.00;;
60006;SDS011;45863;50.336;3.536;2022-07-30T03:52:10;11.05;;;6.10;;
60006;SDS011;45863;50.336;3.536;2022-07-30T03:54:35;11.77;;;7.03;;
60006;SDS011;45863;50.336;3.536;2022-07-30T03:57:01;14.07;;;6.95;;
60006;SDS011;45863;50.336;3.536;2022-07-30T03:59:27;17.50;;;6.82;;
60006;SDS011;45863;50.336;3.536;2022-07-30T04:01:53;15.57;;;6.82;;
60006;SDS011;45863;50.336;3.536;2022-07-30T04:04:18;13.15;;;7.10;;
60006;SDS011;45863;50.336;3.536;2022-07-30T04:06:43;11.77;;;6.47;;
60006;SDS011;45863;50.336;3.536;2022-07-30T04:09:09;13.20;;;6.63;;
60006;SDS011;45863;50.336;3.536;2022-07-30T04:11:35;13.55;;;5.80;;
60006;SDS011;45863;50.336;3.536;2022-07-30T04:14:00;12.02;;;6.05;;
60006;SDS011;45863;50.336;3.536;2022-07-30T04:16:40;14.48;;;6.70;;
60006;SDS011;45863;50.336;3.536;2022-07-30T04:19:07;10.30;;;6.32;;
60006;SDS011;45863;50.336;3.536;2022-07-30T04:21:34;12.00;;;6.60;;
60006;SDS011;45863;50.336;3.536;2022-07-30T04:24:00;11.35;;;6.25;;
60006;SDS011;45863;50.336;3.536;2022-07-30T04:26:29;15.90;;;6.60;;
60006;SDS011;45863;50.336;3.536;2022-07-30T04:28:56;14.30;;;7.00;;
60006;SDS011;45863;50.336;3.536;2022-07-30T04:31:21;14.07;;;6.32;;
60006;SDS011;45863;50.336;3.536;2022-07-30T04:33:46;15.23;;;6.68;;
60006;SDS011;45863;50.336;3.536;2022-07-30T04:36:12;15.30;;;6.63;;
60006;SDS011;45863;50.336;3.536;2022-07-30T04:38:37;11.13;;;6.35;;
60006;SDS011;45863;50.336;3.536;2022-07-30T04:41:03;12.57;;;7.45;;
60006;SDS011;45863;50.336;3.536;2022-07-30T04:43:28;15.82;;;6.28;;
60006;SDS011;45863;50.336;3.536;2022-07-30T04:45:53;15.07;;;7.13;;
60006;SDS011;45863;50.336;3.536;2022-07-30T04:48:18;16.27;;;7.00;;
60006;SDS011;45863;50.336;3.536;2022-07-30T04:50:45;14.73;;;7.47;;
60006;SDS011;45863;50.336;3.536;2022-07-30T04:53:12;14.10;;;7.38;;
60006;SDS011;45863;50.336;3.536;2022-07-30T04:55:39;14.95;;;7.18;;
60006;SDS011;45863;50.336;3.536;2022-07-30T04:58:05;15.35;;;6.90;;
60006;SDS011;45863;50.336;3.536;2022-07-30T05:00:31;13.32;;;6.70;;
60006;SDS011;45863;50.336;3.536;2022-07-30T05:02:57;11.82;;;7.18;;
60006;SDS011;45863;50.336;3.536;2022-07-30T05:05:24;16.60;;;7.60;;
60006;SDS011;45863;50.336;3.536;2022-07-30T05:07:51;14.02;;;7.70;;
60006;SDS011;45863;50.336;3.536;2022-07-30T05:10:17;18.17;;;7.60;;
60006;SDS011;45863;50.336;3.536;2022-07-30T05:12:43;10.95;;;7.40;;
60006;SDS011;45863;50.336;3.536;2022-07-30T05:15:08;19.30;;;8.33;;
60006;SDS011;45863;50.336;3.536;2022-07-30T05:17:34;13.55;;;8.05;;
60006;SDS011;45863;50.336;3.536;2022-07-30T05:19:59;15.60;;;7.60;;
60006;SDS011;45863;50.336;3.536;2022-07-30T05:22:24;15.45;;;8.05;;
60006;SDS011;45863;50.336;3.536;2022-07-30T05:24:53;18.90;;;8.85;;
60006;SDS011;45863;50.336;3.536;2022-07-30T05:27:19;18.88;;;9.40;;
60006;SDS011;45863;50.336;3.536;2022-07-30T05:29:44;17.73;;;9.60;;
60006;SDS011;45863;50.336;3.536;2022-07-30T05:32:10;15.93;;;8.90;;
60006;SDS011;45863;50.336;3.536;2022-07-30T05:34:35;17.87;;;8.87;;
60006;SDS011;45863;50.336;3.536;2022-07-30T05:37:00;19.67;;;10.70;;
60006;SDS011;45863;50.336;3.536;2022-07-30T05:39:25;16.67;;;9.40;;
60006;SDS011;45863;50.336;3.536;2022-07-30T05:41:50;16.53;;;9.23;;
60006;SDS011;45863;50.336;3.536;2022-07-30T05:44:15;18.50;;;9.53;;
60006;SDS011;45863;50.336;3.536;2022-07-30T05:46:41;18.50;;;9.37;;
60006;SDS011;45863;50.336;3.536;2022-07-30T05:49:06;15.67;;;8.17;;
60006;SDS011;45863;50.336;3.536;2022-07-30T05:51:32;14.80;;;8.35;;
60006;SDS011;45863;50.336;3.536;2022-07-30T05:53:57;13.77;;;8.10;;
60006;SDS011;45863;50.336;3.536;2022-07-30T05:56:22;16.63;;;8.47;;
60006;SDS011;45863;50.336;3.536;2022-07-30T05:58:47;13.90;;;8.97;;
60006;SDS011;45863;50.336;3.536;2022-07-30T06:01:13;15.55;;;8.75;;
60006;SDS011;45863;50.336;3.536;2022-07-30T06:03:38;15.43;;;9.80;;
60006;SDS011;45863;50.336;3.536;2022-07-30T06:06:03;16.83;;;9.33;;
60006;SDS011;45863;50.336;3.536;2022-07-30T06:08:29;19.67;;;9.93;;
60006;SDS011;45863;50.336;3.536;2022-07-30T06:10:54;23.98;;;9.85;;
60006;SDS011;45863;50.336;3.536;2022-07-30T06:13:19;15.93;;;10.23;;
60006;SDS011;45863;50.336;3.536;2022-07-30T06:15:44;17.45;;;10.30;;
60006;SDS011;45863;50.336;3.536;2022-07-30T06:18:09;21.60;;;10.90;;
60006;SDS011;45863;50.336;3.536;2022-07-30T06:20:35;18.73;;;10.73;;
60006;SDS011;45863;50.336;3.536;2022-07-30T06:23:00;19.70;;;10.27;;
60006;SDS011;45863;50.336;3.536;2022-07-30T06:25:25;17.13;;;10.32;;
60006;SDS011;45863;50.336;3.536;2022-07-30T06:27:50;17.52;;;10.73;;
60006;SDS011;45863;50.336;3.536;2022-07-30T06:30:15;24.98;;;11.05;;
60006;SDS011;45863;50.336;3.536;2022-07-30T06:32:41;18.63;;;10.70;;
60006;SDS011;45863;50.336;3.536;2022-07-30T06:35:07;19.00;;;11.27;;
60006;SDS011;45863;50.336;3.536;2022-07-30T06:37:32;19.45;;;11.40;;
60006;SDS011;45863;50.336;3.536;2022-07-30T06:39:58;27.58;;;11.52;;
60006;SDS011;45863;50.336;3.536;2022-07-30T06:42:23;19.40;;;11.20;;
60006;SDS011;45863;50.336;3.536;2022-07-30T06:44:48;24.93;;;11.80;;
60006;SDS011;45863;50.336;3.536;2022-07-30T06:47:18;22.87;;;11.53;;
60006;SDS011;45863;50.336;3.536;2022-07-30T06:49:43;17.23;;;11.07;;
60006;SDS011;45863;50.336;3.536;2022-07-30T06:52:08;20.17;;;12.53;;
60006;SDS011;45863;50.336;3.536;2022-07-30T06:54:33;18.17;;;11.47;;
60006;SDS011;45863;50.336;3.536;2022-07-30T06:56:58;26.40;;;12.90;;
60006;SDS011;45863;50.336;3.536;2022-07-30T06:59:24;20.27;;;11.87;;
60006;SDS011;45863;50.336;3.536;2022-07-30T07:01:51;20.55;;;12.18;;
60006;SDS011;45863;50.336;3.536;2022-07-30T07:04:18;27.20;;;12.80;;
60006;SDS011;45863;50.336;3.536;2022-07-30T07:06:43;19.95;;;11.80;;
60006;SDS011;45863;50.336;3.536;2022-07-30T07:09:08;22.27;;;11.93;;
60006;SDS011;45863;50.336;3.536;2022-07-30T07:11:33;25.43;;;12.47;;
60006;SDS011;45863;50.336;3.536;2022-07-30T07:13:58;23.50;;;13.93;;
60006;SDS011;45863;50.336;3.536;2022-07-30T07:16:24;22.40;;;12.23;;
60006;SDS011;45863;50.336;3.536;2022-07-30T07:18:52;24.25;;;11.45;;
60006;SDS011;45863;50.336;3.536;2022-07-30T07:21:18;19.02;;;11.77;;
60006;SDS011;45863;50.336;3.536;2022-07-30T07:23:43;22.17;;;12.00;;
60006;SDS011;45863;50.336;3.536;2022-07-30T07:26:09;20.67;;;11.32;;
60006;SDS011;45863;50.336;3.536;2022-07-30T07:28:35;19.27;;;11.55;;
60006;SDS011;45863;50.336;3.536;2022-07-30T07:31:00;22.05;;;10.90;;
60006;SDS011;45863;50.336;3.536;2022-07-30T07:33:25;16.23;;;8.90;;
60006;SDS011;45863;50.336;3.536;2022-07-30T07:35:50;22.95;;;8.43;;
60006;SDS011;45863;50.336;3.536;2022-07-30T07:38:18;18.77;;;10.55;;
60006;SDS011;45863;50.336;3.536;2022-07-30T07:40:43;16.40;;;9.47;;
60006;SDS011;45863;50.336;3.536;2022-07-30T07:43:08;18.38;;;8.23;;
60006;SDS011;45863;50.336;3.536;2022-07-30T07:45:33;20.77;;;8.77;;
60006;SDS011;45863;50.336;3.536;2022-07-30T07:47:59;16.37;;;8.00;;
60006;SDS011;45863;50.336;3.536;2022-07-30T07:50:24;18.60;;;7.63;;
60006;SDS011;45863;50.336;3.536;2022-07-30T07:52:49;11.93;;;7.77;;
60006;SDS011;45863;50.336;3.536;2022-07-30T07:55:14;17.47;;;7.90;;
60006;SDS011;45863;50.336;3.536;2022-07-30T07:57:40;15.30;;;7.20;;
60006;SDS011;45863;50.336;3.536;2022-07-30T08:00:06;18.55;;;8.05;;
60006;SDS011;45863;50.336;3.536;2022-07-30T08:02:31;16.35;;;7.32;;
60006;SDS011;45863;50.336;3.536;2022-07-30T08:04:56;20.07;;;7.90;;
60006;SDS011;45863;50.336;3.536;2022-07-30T08:07:22;19.17;;;6.82;;
60006;SDS011;45863;50.336;3.536;2022-07-30T08:09:47;13.07;;;5.80;;
60006;SDS011;45863;50.336;3.536;2022-07-30T08:12:12;14.80;;;6.60;;
60006;SDS011;45863;50.336;3.536;2022-07-30T08:14:38;14.60;;;7.20;;
60006;SDS011;45863;50.336;3.536;2022-07-30T08:17:03;13.85;;;6.05;;
60006;SDS011;45863;50.336;3.536;2022-07-30T08:19:28;17.57;;;6.87;;
60006;SDS011;45863;50.336;3.536;2022-07-30T08:21:53;13.90;;;5.30;;
60006;SDS011;45863;50.336;3.536;2022-07-30T08:24:19;14.57;;;5.55;;
60006;SDS011;45863;50.336;3.536;2022-07-30T08:26:44;10.07;;;5.00;;
60006;SDS011;45863;50.336;3.536;2022-07-30T08:29:09;12.23;;;5.27;;
60006;SDS011;45863;50.336;3.536;2022-07-30T08:31:34;13.70;;;5.40;;
60006;SDS011;45863;50.336;3.536;2022-07-30T08:33:59;10.60;;;3.80;;
60006;SDS011;45863;50.336;3.536;2022-07-30T08:36:25;8.10;;;3.47;;
60006;SDS011;45863;50.336;3.536;2022-07-30T08:38:50;9.33;;;3.13;;
60006;SDS011;45863;50.336;3.536;2022-07-30T08:41:16;12.50;;;4.20;;
60006;SDS011;45863;50.336;3.536;2022-07-30T08:43:42;10.52;;;3.85;;
60006;SDS011;45863;50.336;3.536;2022-07-30T08:46:11;12.13;;;3.65;;
60006;SDS011;45863;50.336;3.536;2022-07-30T08:48:36;9.77;;;2.90;;
60006;SDS011;45863;50.336;3.536;2022-07-30T08:51:02;10.07;;;3.30;;
60006;SDS011;45863;50.336;3.536;2022-07-30T08:53:27;9.88;;;2.67;;
60006;SDS011;45863;50.336;3.536;2022-07-30T08:55:53;8.02;;;3.22;;
60006;SDS011;45863;50.336;3.536;2022-07-30T08:58:28;8.55;;;3.20;;
60006;SDS011;45863;50.336;3.536;2022-07-30T09:00:54;9.13;;;3.75;;
60006;SDS011;45863;50.336;3.536;2022-07-30T09:03:19;10.38;;;4.05;;
60006;SDS011;45863;50.336;3.536;2022-07-30T09:05:45;11.23;;;3.70;;
60006;SDS011;45863;50.336;3.536;2022-07-30T09:08:10;9.27;;;3.50;;
60006;SDS011;45863;50.336;3.536;2022-07-30T09:10:35;9.35;;;3.40;;
60006;SDS011;45863;50.336;3.536;2022-07-30T09:13:01;7.47;;;2.70;;
60006;SDS011;45863;50.336;3.536;2022-07-30T09:15:26;9.68;;;2.53;;
60006;SDS011;45863;50.336;3.536;2022-07-30T09:17:54;6.93;;;2.97;;
60006;SDS011;45863;50.336;3.536;2022-07-30T09:20:21;8.57;;;3.15;;
60006;SDS011;45863;50.336;3.536;2022-07-30T09:22:56;7.40;;;2.80;;
60006;SDS011;45863;50.336;3.536;2022-07-30T09:25:41;5.32;;;2.60;;
60006;SDS011;45863;50.336;3.536;2022-07-30T09:28:07;5.38;;;2.40;;
60006;SDS011;45863;50.336;3.536;2022-07-30T09:30:49;12.73;;;2.47;;
60006;SDS011;45863;50.336;3.536;2022-07-30T09:33:16;8.23;;;2.80;;
60006;SDS011;45863;50.336;3.536;2022-07-30T09:35:54;6.72;;;3.35;;
60006;SDS011;45863;50.336;3.536;2022-07-30T09:38:20;10.95;;;3.17;;
60006;SDS011;45863;50.336;3.536;2022-07-30T09:40:52;6.17;;;2.60;;
60006;SDS011;45863;50.336;3.536;2022-07-30T09:43:17;18.95;;;4.35;;
60006;SDS011;45863;50.336;3.536;2022-07-30T09:45:53;7.30;;;2.40;;
60006;SDS011;45863;50.336;3.536;2022-07-30T09:48:20;8.20;;;2.90;;
60006;SDS011;45863;50.336;3.536;2022-07-30T09:50:46;22.60;;;5.07;;
60006;SDS011;45863;50.336;3.536;2022-07-30T10:14:56;8.25;;;2.75;;
60006;SDS011;45863;50.336;3.536;2022-07-30T10:17:22;9.68;;;2.75;;
60006;SDS011;45863;50.336;3.536;2022-07-30T10:19:47;8.40;;;2.57;;
60006;SDS011;45863;50.336;3.536;2022-07-30T10:22:12;6.28;;;2.92;;
60006;SDS011;45863;50.336;3.536;2022-07-30T10:24:38;7.25;;;2.85;;
60006;SDS011;45863;50.336;3.536;2022-07-30T10:27:04;9.18;;;2.90;;
60006;SDS011;45863;50.336;3.536;2022-07-30T10:29:32;7.25;;;2.60;;
60006;SDS011;45863;50.336;3.536;2022-07-30T10:31:59;7.50;;;2.50;;
60006;SDS011;45863;50.336;3.536;2022-07-30T10:34:24;9.32;;;2.58;;
60006;SDS011;45863;50.336;3.536;2022-07-30T10:36:51;7.90;;;2.70;;
60006;SDS011;45863;50.336;3.536;2022-07-30T10:39:19;9.00;;;3.30;;
60006;SDS011;45863;50.336;3.536;2022-07-30T10:44:33;7.65;;;2.25;;
60006;SDS011;45863;50.336;3.536;2022-07-30T10:49:28;10.88;;;2.80;;
60006;SDS011;45863;50.336;3.536;2022-07-30T10:51:53;8.13;;;2.40;;
60006;SDS011;45863;50.336;3.536;2022-07-30T10:54:38;9.73;;;2.53;;
60006;SDS011;45863;50.336;3.536;2022-07-30T10:57:04;5.22;;;2.10;;
60006;SDS011;45863;50.336;3.536;2022-07-30T10:59:56;6.43;;;2.22;;
60006;SDS011;45863;50.336;3.536;2022-07-30T11:02:15;3.97;;;2.00;;
60006;SDS011;45863;50.336;3.536;2022-07-30T11:04:41;4.72;;;1.60;;
60006;SDS011;45863;50.336;3.536;2022-07-30T11:09:47;6.10;;;1.83;;
60006;SDS011;45863;50.336;3.536;2022-07-30T11:12:13;5.40;;;2.10;;
60006;SDS011;45863;50.336;3.536;2022-07-30T11:17:09;6.32;;;2.00;;
60006;SDS011;45863;50.336;3.536;2022-07-30T11:19:34;7.73;;;2.00;;
60006;SDS011;45863;50.336;3.536;2022-07-30T11:22:21;6.37;;;1.97;;
60006;SDS011;45863;50.336;3.536;2022-07-30T11:24:45;5.55;;;2.10;;
60006;SDS011;45863;50.336;3.536;2022-07-30T11:29:55;5.53;;;2.28;;
60006;SDS011;45863;50.336;3.536;2022-07-30T11:32:27;6.13;;;2.00;;
60006;SDS011;45863;50.336;3.536;2022-07-30T11:35:38;5.38;;;1.83;;
60006;SDS011;45863;50.336;3.536;2022-07-30T11:38:23;5.68;;;1.77;;
60006;SDS011;45863;50.336;3.536;2022-07-30T11:40:25;4.32;;;1.55;;
60006;SDS011;45863;50.336;3.536;2022-07-30T11:42:50;4.55;;;1.65;;
60006;SDS011;45863;50.336;3.536;2022-07-30T11:47:54;4.55;;;1.77;;
60006;SDS011;45863;50.336;3.536;2022-07-30T11:50:20;6.55;;;2.10;;
60006;SDS011;45863;50.336;3.536;2022-07-30T11:55:24;4.60;;;1.73;;
60006;SDS011;45863;50.336;3.536;2022-07-30T11:57:50;14.18;;;1.80;;
60006;SDS011;45863;50.336;3.536;2022-07-30T12:00:15;5.50;;;1.98;;
60006;SDS011;45863;50.336;3.536;2022-07-30T12:02:42;4.35;;;1.73;;
60006;SDS011;45863;50.336;3.536;2022-07-30T12:05:07;6.85;;;2.08;;
60006;SDS011;45863;50.336;3.536;2022-07-30T12:07:33;6.17;;;2.17;;
60006;SDS011;45863;50.336;3.536;2022-07-30T12:10:18;7.93;;;1.80;;
60006;SDS011;45863;50.336;3.536;2022-07-30T12:12:44;6.18;;;2.20;;
60006;SDS011;45863;50.336;3.536;2022-07-30T12:15:09;8.05;;;1.95;;
60006;SDS011;45863;50.336;3.536;2022-07-30T12:17:41;11.27;;;2.03;;
60006;SDS011;45863;50.336;3.536;2022-07-30T12:20:15;5.68;;;2.10;;
60006;SDS011;45863;50.336;3.536;2022-07-30T12:22:41;7.45;;;1.90;;
60006;SDS011;45863;50.336;3.536;2022-07-30T12:25:07;5.20;;;1.83;;
60006;SDS011;45863;50.336;3.536;2022-07-30T12:27:32;4.55;;;1.80;;
60006;SDS011;45863;50.336;3.536;2022-07-30T12:29:57;5.13;;;1.80;;
60006;SDS011;45863;50.336;3.536;2022-07-30T12:32:23;6.78;;;1.83;;
60006;SDS011;45863;50.336;3.536;2022-07-30T12:34:54;8.20;;;1.97;;
60006;SDS011;45863;50.336;3.536;2022-07-30T12:37:20;5.15;;;1.80;;
60006;SDS011;45863;50.336;3.536;2022-07-30T12:39:45;5.95;;;2.20;;
60006;SDS011;45863;50.336;3.536;2022-07-30T12:42:17;5.93;;;1.67;;
60006;SDS011;45863;50.336;3.536;2022-07-30T12:44:42;5.35;;;1.85;;
60006;SDS011;45863;50.336;3.536;2022-07-30T12:47:21;6.72;;;1.80;;
60006;SDS011;45863;50.336;3.536;2022-07-30T12:49:47;6.07;;;1.90;;
60006;SDS011;45863;50.336;3.536;2022-07-30T12:52:26;5.78;;;2.08;;
60006;SDS011;45863;50.336;3.536;2022-07-30T12:54:55;5.22;;;1.67;;
60006;SDS011;45863;50.336;3.536;2022-07-30T12:57:21;6.10;;;1.90;;
60006;SDS011;45863;50.336;3.536;2022-07-30T12:59:46;6.27;;;2.20;;
60006;SDS011;45863;50.336;3.536;2022-07-30T13:02:11;5.72;;;1.80;;
60006;SDS011;45863;50.336;3.536;2022-07-30T13:04:48;4.10;;;1.40;;
60006;SDS011;45863;50.336;3.536;2022-07-30T13:07:13;4.85;;;1.80;;
60006;SDS011;45863;50.336;3.536;2022-07-30T13:09:40;4.70;;;1.73;;
60006;SDS011;45863;50.336;3.536;2022-07-30T13:12:06;5.80;;;1.53;;
60006;SDS011;45863;50.336;3.536;2022-07-30T13:14:31;4.40;;;1.75;;
60006;SDS011;45863;50.336;3.536;2022-07-30T13:16:56;5.68;;;1.70;;
60006;SDS011;45863;50.336;3.536;2022-07-30T13:19:22;7.65;;;1.70;;
60006;SDS011;45863;50.336;3.536;2022-07-30T13:21:48;3.42;;;1.45;;
60006;SDS011;45863;50.336;3.536;2022-07-30T13:24:13;4.82;;;1.60;;
60006;SDS011;45863;50.336;3.536;2022-07-30T13:26:39;4.20;;;1.53;;
60006;SDS011;45863;50.336;3.536;2022-07-30T13:29:04;4.63;;;1.60;;
60006;SDS011;45863;50.336;3.536;2022-07-30T13:31:29;6.28;;;1.55;;
60006;SDS011;45863;50.336;3.536;2022-07-30T13:33:55;6.27;;;1.70;;
60006;SDS011;45863;50.336;3.536;2022-07-30T13:36:20;4.20;;;1.60;;
60006;SDS011;45863;50.336;3.536;2022-07-30T13:38:45;3.43;;;1.57;;
60006;SDS011;45863;50.336;3.536;2022-07-30T13:41:11;4.38;;;1.83;;
60006;SDS011;45863;50.336;3.536;2022-07-30T13:43:36;5.78;;;1.70;;
60006;SDS011;45863;50.336;3.536;2022-07-30T13:46:02;5.07;;;1.90;;
60006;SDS011;45863;50.336;3.536;2022-07-30T13:48:27;4.28;;;1.80;;
60006;SDS011;45863;50.336;3.536;2022-07-30T13:50:53;5.65;;;1.58;;
60006;SDS011;45863;50.336;3.536;2022-07-30T13:53:18;4.87;;;1.83;;
60006;SDS011;45863;50.336;3.536;2022-07-30T13:55:43;6.13;;;1.70;;
60006;SDS011;45863;50.336;3.536;2022-07-30T13:58:10;6.25;;;1.60;;
60006;SDS011;45863;50.336;3.536;2022-07-30T14:00:35;8.60;;;2.20;;
60006;SDS011;45863;50.336;3.536;2022-07-30T14:03:02;5.32;;;1.48;;
60006;SDS011;45863;50.336;3.536;2022-07-30T14:05:27;4.03;;;1.70;;
60006;SDS011;45863;50.336;3.536;2022-07-30T14:07:53;5.63;;;1.65;;
60006;SDS011;45863;50.336;3.536;2022-07-30T14:10:18;4.43;;;1.35;;
60006;SDS011;45863;50.336;3.536;2022-07-30T14:12:46;3.85;;;1.40;;
60006;SDS011;45863;50.336;3.536;2022-07-30T14:15:11;4.10;;;1.38;;
60006;SDS011;45863;50.336;3.536;2022-07-30T14:17:36;5.57;;;1.90;;
60006;SDS011;45863;50.336;3.536;2022-07-30T14:20:02;4.83;;;1.60;;
60006;SDS011;45863;50.336;3.536;2022-07-30T14:22:27;7.60;;;1.67;;
60006;SDS011;45863;50.336;3.536;2022-07-30T14:24:52;5.10;;;1.60;;
60006;SDS011;45863;50.336;3.536;2022-07-30T14:27:18;5.43;;;1.37;;
60006;SDS011;45863;50.336;3.536;2022-07-30T14:29:44;6.15;;;1.60;;
60006;SDS011;45863;50.336;3.536;2022-07-30T14:32:09;4.53;;;1.45;;
60006;SDS011;45863;50.336;3.536;2022-07-30T14:34:35;7.43;;;1.50;;
60006;SDS011;45863;50.336;3.536;2022-07-30T14:37:00;5.43;;;1.50;;
60006;SDS011;45863;50.336;3.536;2022-07-30T14:39:25;5.63;;;1.45;;
60006;SDS011;45863;50.336;3.536;2022-07-30T14:41:50;3.67;;;1.27;;
60006;SDS011;45863;50.336;3.536;2022-07-30T14:44:15;5.45;;;1.48;;
60006;SDS011;45863;50.336;3.536;2022-07-30T14:46:41;4.63;;;1.60;;
60006;SDS011;45863;50.336;3.536;2022-07-30T14:49:07;4.45;;;1.25;;
60006;SDS011;45863;50.336;3.536;2022-07-30T14:51:33;4.00;;;1.38;;
60006;SDS011;45863;50.336;3.536;2022-07-30T14:53:58;3.35;;;1.40;;
60006;SDS011;45863;50.336;3.536;2022-07-30T14:56:23;4.18;;;1.33;;
60006;SDS011;45863;50.336;3.536;2022-07-30T14:58:49;5.57;;;1.52;;
60006;SDS011;45863;50.336;3.536;2022-07-30T15:01:14;5.25;;;1.50;;
60006;SDS011;45863;50.336;3.536;2022-07-30T15:03:39;6.03;;;1.80;;
60006;SDS011;45863;50.336;3.536;2022-07-30T15:06:05;4.70;;;1.40;;
60006;SDS011;45863;50.336;3.536;2022-07-30T15:08:33;3.30;;;1.27;;
60006;SDS011;45863;50.336;3.536;2022-07-30T15:10:58;4.38;;;1.58;;
60006;SDS011;45863;50.336;3.536;2022-07-30T15:13:23;5.07;;;1.53;;
60006;SDS011;45863;50.336;3.536;2022-07-30T15:15:50;5.85;;;1.90;;
60006;SDS011;45863;50.336;3.536;2022-07-30T15:18:15;8.87;;;2.27;;
60006;SDS011;45863;50.336;3.536;2022-07-30T15:20:40;8.43;;;1.60;;